Terminal Aerodrome Forecast
Issued by NWS Sterling, VA

Current Version | Previous Version | Graphics & Text | Print | Product List | Glossary On
Versions: 1 2 3 4 5 6 7 8 9 10 11 12 13
000
FTUS41 KLWX 021731
TAFMRB
TAF
KMRB 021731Z 0218/0318 34007KT P6SM BKN050
     FM022300 31004KT P6SM FEW050 SCT200
     FM030800 30004KT 5SM BR FEW200
     FM031200 00000KT P6SM FEW200
     FM031500 30005KT P6SM FEW050=

USA.gov is the U.S. government's official web portal to all federal, state and local government web resources and services.